createdAt,value
2022-12-11T00:00:05.171Z,0.77
2022-12-11T00:05:26.899Z,0.74
2022-12-11T00:10:49.674Z,0.69
2022-12-11T00:16:11.729Z,0.71
2022-12-11T00:21:34.149Z,0.68
2022-12-11T00:26:56.070Z,0.63
2022-12-11T00:32:17.785Z,0.89
2022-12-11T00:37:39.576Z,0.74
2022-12-11T00:43:01.349Z,0.91
2022-12-11T00:48:23.096Z,1.00
2022-12-11T00:53:44.912Z,1.13
2022-12-11T00:59:06.760Z,1.13
2022-12-11T01:04:28.517Z,1.13
2022-12-11T01:10:08.724Z,1.22
2022-12-11T01:15:48.493Z,1.20
2022-12-11T01:21:13.284Z,1.19
2022-12-11T01:26:35.041Z,1.31
2022-12-11T01:31:56.845Z,1.30
2022-12-11T01:37:18.573Z,1.29
2022-12-11T01:42:40.566Z,1.33
2022-12-11T01:48:14.495Z,1.27
2022-12-11T01:53:43.380Z,1.12
2022-12-11T01:59:07.882Z,1.25
2022-12-11T02:04:30.943Z,1.49
2022-12-11T02:09:52.763Z,1.14
2022-12-11T02:15:26.490Z,1.24
2022-12-11T02:21:03.002Z,1.33
2022-12-11T02:26:58.864Z,1.30
2022-12-11T02:32:26.137Z,1.20
2022-12-11T02:37:51.768Z,1.26
2022-12-11T02:48:41.652Z,1.52
2022-12-11T02:54:06.773Z,1.69
2022-12-11T02:59:41.532Z,1.66
2022-12-11T03:05:03.673Z,1.78
2022-12-11T03:10:25.513Z,1.73
2022-12-11T03:15:59.098Z,1.72
2022-12-11T03:21:32.695Z,1.67
2022-12-11T03:26:57.319Z,1.52
2022-12-11T03:32:25.465Z,1.40
2022-12-11T03:37:49.794Z,1.42
2022-12-11T03:43:11.984Z,1.18
2022-12-11T03:48:38.110Z,1.30
2022-12-11T03:54:00.370Z,1.33
2022-12-11T03:59:22.458Z,1.22
2022-12-11T04:04:44.220Z,1.17
2022-12-11T04:10:06.098Z,1.30
2022-12-11T04:15:27.824Z,1.12
2022-12-11T04:21:08.443Z,1.10
2022-12-11T04:26:30.191Z,1.35
2022-12-11T04:31:51.954Z,1.48
2022-12-11T04:37:13.672Z,1.49
2022-12-11T04:42:35.557Z,1.61
2022-12-11T04:47:57.332Z,1.67
2022-12-11T04:53:19.341Z,1.65
2022-12-11T04:58:42.702Z,1.76
2022-12-11T05:04:04.550Z,1.74
2022-12-11T05:09:27.144Z,1.72
2022-12-11T05:14:52.963Z,1.47
2022-12-11T05:20:15.066Z,1.41
2022-12-11T05:25:36.942Z,1.46
2022-12-11T05:31:00.792Z,1.18
2022-12-11T05:36:32.046Z,1.10
2022-12-11T05:41:53.804Z,1.15
2022-12-11T05:47:15.520Z,0.84
2022-12-11T05:52:37.338Z,0.78
2022-12-11T05:57:59.077Z,0.77
2022-12-11T06:03:20.831Z,0.71
2022-12-11T06:08:42.796Z,0.70
2022-12-11T06:14:04.728Z,0.71
2022-12-11T06:19:26.471Z,0.75
2022-12-11T06:24:48.174Z,0.53
2022-12-11T06:30:10.459Z,0.38
2022-12-11T06:35:34.237Z,0.28
2022-12-11T06:41:02.580Z,0.18
2022-12-11T06:46:24.344Z,0.14
2022-12-11T06:51:46.133Z,0.18
2022-12-11T06:57:09.576Z,0.02
2022-12-11T07:02:31.704Z,0.07
2022-12-11T07:07:54.761Z,-0.04
2022-12-11T07:13:16.633Z,0.22
2022-12-11T07:18:40.566Z,0.43
2022-12-11T07:24:02.503Z,0.30
2022-12-11T07:29:24.506Z,0.07
2022-12-11T07:34:51.571Z,0.34
2022-12-11T07:40:14.224Z,0.33
2022-12-11T07:45:35.991Z,0.27
2022-12-11T07:51:17.709Z,0.46
2022-12-11T07:56:43.657Z,0.59
2022-12-11T08:02:06.113Z,0.51
2022-12-11T08:07:27.897Z,0.27
2022-12-11T08:12:49.639Z,0.37
2022-12-11T08:18:11.410Z,0.40
2022-12-11T08:23:33.538Z,0.74
2022-12-11T08:28:56.018Z,0.78
2022-12-11T08:34:17.753Z,0.52
2022-12-11T08:39:39.713Z,0.36
2022-12-11T08:45:01.441Z,0.71
2022-12-11T08:50:23.235Z,0.80
2022-12-11T08:55:45.029Z,0.41
2022-12-11T09:01:13.671Z,0.54
2022-12-11T09:06:35.672Z,0.40
2022-12-11T09:11:57.448Z,0.71
2022-12-11T09:17:19.277Z,0.75
2022-12-11T09:22:42.804Z,0.73
2022-12-11T09:28:04.659Z,0.95
2022-12-11T09:33:26.469Z,0.81
2022-12-11T09:38:48.482Z,1.02
2022-12-11T09:44:28.701Z,0.86
2022-12-11T09:49:56.859Z,1.15
2022-12-11T09:55:24.702Z,1.02
2022-12-11T10:01:01.474Z,1.13
2022-12-11T10:06:35.790Z,1.34
2022-12-11T10:11:57.506Z,1.41
2022-12-11T10:17:23.427Z,1.52
2022-12-11T10:22:45.902Z,1.34
2022-12-11T10:28:16.067Z,1.30
2022-12-11T10:33:40.733Z,1.10
2022-12-11T10:39:04.074Z,1.16
2022-12-11T10:44:31.118Z,1.43
2022-12-11T10:49:52.811Z,1.50
2022-12-11T10:55:22.592Z,1.42
2022-12-11T11:00:45.883Z,1.29
2022-12-11T11:06:17.413Z,1.43
2022-12-11T11:11:39.643Z,1.58
2022-12-11T11:17:01.425Z,1.64
2022-12-11T11:22:23.271Z,1.57
2022-12-11T11:27:57.711Z,1.41
2022-12-11T11:33:22.325Z,1.59
2022-12-11T11:39:03.784Z,1.53
2022-12-11T11:44:32.075Z,1.59
2022-12-11T11:50:08.405Z,1.80
2022-12-11T11:55:53.899Z,1.75
2022-12-11T12:01:19.422Z,1.69
2022-12-11T12:06:57.833Z,1.46
2022-12-11T12:13:01.252Z,1.47
2022-12-11T12:18:23.022Z,1.59
2022-12-11T12:23:59.973Z,1.43
2022-12-11T12:29:40.495Z,1.24
2022-12-11T12:35:17.231Z,1.34
2022-12-11T12:40:55.987Z,1.24
2022-12-11T12:46:20.497Z,1.25
2022-12-11T12:51:44.357Z,1.35
2022-12-11T12:57:06.826Z,1.71
2022-12-11T13:02:29.833Z,1.35
2022-12-11T13:07:55.413Z,1.45
2022-12-11T13:13:32.565Z,1.48
2022-12-11T13:18:54.720Z,1.36
2022-12-11T13:24:26.043Z,1.39
2022-12-11T13:29:47.976Z,1.20
2022-12-11T13:35:16.321Z,1.26
2022-12-11T13:40:44.359Z,1.34
2022-12-11T13:46:11.309Z,1.10
2022-12-11T13:51:36.083Z,1.14
2022-12-11T13:56:57.843Z,1.12
2022-12-11T14:02:25.695Z,1.19
2022-12-11T14:07:57.227Z,1.16
2022-12-11T14:13:23.454Z,1.18
2022-12-11T14:18:45.405Z,1.21
2022-12-11T14:24:12.666Z,1.14
2022-12-11T14:29:34.394Z,0.84
2022-12-11T14:34:57.179Z,0.99
2022-12-11T14:40:22.572Z,1.15
2022-12-11T14:45:48.662Z,1.21
2022-12-11T14:51:14.987Z,1.10
2022-12-11T14:56:37.379Z,0.84
2022-12-11T15:02:02.090Z,0.88
2022-12-11T15:07:24.363Z,0.96
2022-12-11T15:12:46.473Z,0.64
2022-12-11T15:18:20.664Z,0.55
2022-12-11T15:23:54.573Z,0.74
2022-12-11T15:29:30.422Z,0.98
2022-12-11T15:34:56.307Z,0.99
2022-12-11T15:40:18.081Z,1.12
2022-12-11T15:45:39.866Z,1.16
2022-12-11T15:51:01.666Z,0.98
2022-12-11T15:56:23.478Z,1.11
2022-12-11T16:01:45.373Z,1.23
2022-12-11T16:07:16.498Z,1.08
2022-12-11T16:12:38.240Z,0.99
2022-12-11T16:18:06.013Z,1.12
2022-12-11T16:23:29.429Z,1.23
2022-12-11T16:28:51.178Z,1.17
2022-12-11T16:34:12.964Z,1.03
2022-12-11T16:39:36.916Z,1.09
2022-12-11T16:45:06.086Z,1.07
2022-12-11T16:50:27.834Z,0.74
2022-12-11T16:55:49.701Z,0.62
2022-12-11T17:01:12.896Z,0.71
2022-12-11T17:06:34.738Z,0.90
2022-12-11T17:11:56.518Z,0.88
2022-12-11T17:17:18.293Z,0.74
2022-12-11T17:22:40.145Z,0.85
2022-12-11T17:28:01.893Z,0.77
2022-12-11T17:33:24.101Z,0.90
2022-12-11T17:38:48.290Z,0.84
2022-12-11T17:44:10.401Z,0.69
2022-12-11T17:49:32.611Z,0.79
2022-12-11T17:54:54.375Z,0.84
2022-12-11T18:00:16.382Z,0.81
2022-12-11T18:05:46.675Z,0.80
2022-12-11T18:11:12.200Z,0.91
2022-12-11T18:16:36.773Z,0.90
2022-12-11T18:21:58.555Z,0.81
2022-12-11T18:27:20.308Z,0.81
2022-12-11T18:32:43.946Z,0.75
2022-12-11T18:38:05.895Z,0.62
2022-12-11T18:43:27.640Z,0.63
2022-12-11T18:48:50.648Z,0.55
2022-12-11T18:54:12.466Z,0.33
2022-12-11T18:59:34.358Z,0.23
2022-12-11T19:04:56.077Z,0.39
2022-12-11T19:10:17.886Z,0.34
2022-12-11T19:15:41.896Z,0.36
2022-12-11T19:21:09.475Z,0.02
2022-12-11T19:26:31.286Z,0.14
2022-12-11T19:31:55.122Z,0.10
2022-12-11T19:37:16.943Z,-0.03
2022-12-11T19:42:38.696Z,-0.37
2022-12-11T19:48:00.535Z,-0.33
2022-12-11T19:53:22.353Z,0.14
2022-12-11T19:58:44.981Z,-0.01
2022-12-11T20:04:10.213Z,0.28
2022-12-11T20:09:33.617Z,0.05
2022-12-11T20:14:55.405Z,-0.07
2022-12-11T20:20:17.258Z,0.31
2022-12-11T20:25:40.380Z,0.46
2022-12-11T20:31:16.376Z,0.46
2022-12-11T20:36:41.523Z,0.32
2022-12-11T20:42:04.989Z,0.46
2022-12-11T20:47:26.789Z,0.44
2022-12-11T20:52:48.533Z,0.43
2022-12-11T20:58:11.441Z,0.63
2022-12-11T21:03:40.404Z,0.52
2022-12-11T21:09:07.070Z,0.56
2022-12-11T21:14:30.496Z,0.66
2022-12-11T21:19:52.632Z,0.77
2022-12-11T21:25:14.672Z,0.55
2022-12-11T21:30:40.113Z,0.40
2022-12-11T21:36:02.365Z,0.62
2022-12-11T21:41:25.036Z,0.80
2022-12-11T21:46:46.785Z,0.69
2022-12-11T21:52:09.221Z,0.75
2022-12-11T21:57:31.251Z,0.90
2022-12-11T22:02:53.103Z,0.84
2022-12-11T22:08:15.712Z,0.85
2022-12-11T22:13:37.587Z,0.62
2022-12-11T22:18:59.878Z,0.86
2022-12-11T22:24:21.602Z,0.87
2022-12-11T22:29:43.409Z,0.96
2022-12-11T22:35:05.457Z,0.96
2022-12-11T22:40:27.601Z,0.99
2022-12-11T22:45:49.448Z,0.89
2022-12-11T22:51:11.675Z,0.97
2022-12-11T22:56:33.419Z,0.83
2022-12-11T23:01:55.258Z,1.08
2022-12-11T23:07:16.994Z,0.88
2022-12-11T23:12:38.759Z,0.80
2022-12-11T23:18:00.550Z,0.67
2022-12-11T23:23:22.321Z,0.83
2022-12-11T23:28:45.073Z,0.81
2022-12-11T23:34:06.905Z,0.93
2022-12-11T23:39:28.861Z,0.87
2022-12-11T23:44:50.710Z,0.85
2022-12-11T23:50:12.461Z,0.72
2022-12-11T23:55:34.563Z,0.68
